메인 페이지
METAR-TAF:

METAR-TAF

공항 :

오슬로 가르데르모엔 국제공항

오슬로, 노르웨이

위도: 60-12N, 경도: 011-05E, 고도: 208m

현재 날씨관측

예보는 35분 전, 11:20시(UTC)에 발표되었습니다.
10kt
온도 15°C
습도 77%
기압 1014 hPa
시정 10km 이상
고도 2700ft 상공 구름 조금, 적란운.
고도 2700ft 상공 구름 많음
약한소나기

METAR: ENGM 241120Z 36010KT 9999 -SHRA FEW027CB BKN027 15/11 Q1014 TEMPO SHRA

시각: 13:55 (11:55 UTC)

예보

예보는 55분 전, 11:00시(UTC)에 발표되었습니다.
예보 대상 시간: 24일 12시부터 25일 12시까지 (UTC)
10kt
시정 10km 이상
고도 2500ft 상공 구름 조금, 타워링 적운.
고도 3000ft 상공 구름 많음
일시적
24일 12시부터 24일 24시까지 (UTC)
고도 2500ft 상공 구름 보통, 적란운.
고도 3000ft 상공 구름 많음
소나기
일시적
25일 03시부터 25일 09시까지 (UTC)
고도 1200ft 상공 구름 많음

TAF: ENGM 241100Z 2412/2512 36010KT 9999 FEW025TCU BKN030 TEMPO 2412/2424 SHRA SCT025CB BKN030 TEMPO 2503/2509 BKN012

4,000개 이상의 공항 관측 자료 및 예보 (METAR 및 TAF 보고).

지도상에서 검색 가능한 기상관측소가 노란 점과 빨간 점으로 표시되어 있습니다.

기상관측소 명을 보려면 표시 위로 마우스를 이동하세요.

날씨 관측과 예보를 보려면 클릭하세요.

지도 변경 : 확대하려면 엑스 표시가 있는 녹색 버튼, 축소하려면 빼기 표시가 있는 녹색 버튼, 다음 페이지의 지도를 보려면 녹색 화살표를 클릭하세요.


METAR-TAF: